Time;durP1;ratioP1;P1;durP2;ratioP2;P2;SDS_P1;SDS_P2;PMS_P1;PMS_P2;Temp;Humidity;BMP_temperature;BMP_pressure;BME280_temperature;BME280_humidity;BME280_pressure;Samples;Min_cycle;Max_cycle;Signal;HPM_P1;HPM_P2
2021/09/08 00:01:23;;;;;;;1.83;1.73;;;;;;;21.47;41.27;100331.81;5013531;28;20068;-77
2021/09/08 00:03:48;;;;;;;1.27;1.20;;;;;;;21.43;41.18;100326.91;5010896;28;20037;-77
2021/09/08 00:06:13;;;;;;;1.70;1.60;;;;;;;21.39;41.52;100331.53;4999536;28;20023;-76
2021/09/08 00:08:39;;;;;;;0.90;0.90;;;;;;;21.36;41.72;100320.28;4995546;28;20037;-76
2021/09/08 00:11:05;;;;;;;1.35;1.30;;;;;;;21.33;41.59;100318.19;4973581;28;20041;-76
2021/09/08 00:13:30;;;;;;;1.10;1.10;;;;;;;21.33;41.85;100321.75;5004454;28;20468;-76
2021/09/08 00:15:56;;;;;;;0.80;0.80;;;;;;;21.29;41.49;100320.84;5004464;28;20042;-77
2021/09/08 00:18:22;;;;;;;1.13;1.13;;;;;;;21.32;41.54;100316.53;5013937;28;20467;-76
2021/09/08 00:20:48;;;;;;;0.90;0.90;;;;;;;21.29;41.88;100309.72;5013139;28;20046;-76
2021/09/08 00:23:13;;;;;;;1.23;1.23;;;;;;;21.28;42.39;100308.09;4995310;28;20104;-76
2021/09/08 00:25:39;;;;;;;0.93;0.93;;;;;;;21.27;42.33;100301.72;5002078;28;20022;-71
2021/09/08 00:28:04;;;;;;;0.80;0.80;;;;;;;21.23;42.26;100289.66;5009792;28;20072;-74
2021/09/08 00:30:30;;;;;;;0.70;0.70;;;;;;;21.22;41.90;100292.78;5030790;28;20601;-73
2021/09/08 00:32:55;;;;;;;1.27;0.90;;;;;;;21.23;42.52;100297.16;4997307;28;20038;-72
2021/09/08 00:35:21;;;;;;;1.27;1.08;;;;;;;21.23;42.23;100294.38;5004396;28;20157;-72
2021/09/08 00:37:46;;;;;;;1.30;1.30;;;;;;;21.20;42.20;100289.50;4975024;28;20049;-71
2021/09/08 00:40:12;;;;;;;1.20;1.20;;;;;;;21.18;42.52;100283.47;5004817;28;20022;-69
2021/09/08 00:42:37;;;;;;;1.45;1.42;;;;;;;21.16;43.04;100294.94;5006867;28;20033;-70
2021/09/08 00:45:04;;;;;;;1.30;1.27;;;;;;;21.14;42.78;100290.88;5002792;28;20034;-71
2021/09/08 00:47:29;;;;;;;0.70;0.60;;;;;;;21.13;42.80;100290.06;5007467;28;20033;-70
2021/09/08 00:49:55;;;;;;;0.70;0.68;;;;;;;21.08;42.80;100290.25;4989041;28;20576;-69
2021/09/08 00:52:21;;;;;;;1.10;1.02;;;;;;;21.07;43.15;100286.69;4987646;28;20049;-68
2021/09/08 00:54:48;;;;;;;0.77;0.77;;;;;;;21.03;43.19;100285.72;4991782;28;20030;-73
2021/09/08 00:57:15;;;;;;;0.60;0.60;;;;;;;20.99;43.08;100279.22;5003983;28;20022;-69
2021/09/08 00:59:41;;;;;;;0.80;0.80;;;;;;;21.02;43.33;100274.97;5003148;28;20112;-68
2021/09/08 01:02:06;;;;;;;0.70;0.70;;;;;;;21.04;43.15;100275.41;4989928;28;20026;-69
2021/09/08 01:04:32;;;;;;;0.60;0.60;;;;;;;21.04;43.36;100273.47;4972824;28;20034;-69
2021/09/08 01:06:59;;;;;;;0.63;0.60;;;;;;;21.04;43.53;100275.41;5004198;28;20104;-69
2021/09/08 01:09:24;;;;;;;0.70;0.70;;;;;;;21.03;43.14;100269.06;4998538;28;20037;-70
2021/09/08 01:11:50;;;;;;;0.38;0.38;;;;;;;20.98;43.36;100269.25;5009783;28;20034;-69
2021/09/08 01:14:15;;;;;;;0.40;0.40;;;;;;;21.00;43.58;100264.19;5006369;28;20034;-70
2021/09/08 01:16:41;;;;;;;0.90;0.57;;;;;;;20.98;43.24;100260.91;5010977;28;20841;-70
2021/09/08 01:19:06;;;;;;;0.40;0.40;;;;;;;20.94;43.74;100260.00;5009149;28;20033;-70
2021/09/08 01:21:32;;;;;;;0.80;0.70;;;;;;;20.92;43.75;100254.78;5009187;28;20026;-73
2021/09/08 01:24:06;;;;;;;0.57;0.57;;;;;;;20.93;43.44;100261.94;5011208;28;20415;-73
2021/09/08 01:26:31;;;;;;;0.63;0.63;;;;;;;20.91;44.02;100252.34;4991742;28;20026;-72
2021/09/08 01:28:57;;;;;;;0.68;0.68;;;;;;;20.89;44.17;100251.84;4982409;28;20196;-73
2021/09/08 01:31:25;;;;;;;0.57;0.57;;;;;;;20.87;43.82;100254.97;5010426;28;20080;-73
2021/09/08 01:33:51;;;;;;;0.57;0.57;;;;;;;20.85;44.62;100256.44;5008698;28;20079;-72
2021/09/08 01:36:16;;;;;;;0.90;0.90;;;;;;;20.85;43.83;100251.72;5008878;28;20033;-70
2021/09/08 01:38:42;;;;;;;0.90;0.90;;;;;;;20.83;44.57;100242.09;5007062;28;20029;-69
2021/09/08 01:41:07;;;;;;;0.63;0.63;;;;;;;20.82;44.26;100254.34;4996830;28;20053;-75
2021/09/08 01:43:33;;;;;;;0.93;0.93;;;;;;;20.78;44.81;100254.25;5009512;28;20028;-76
2021/09/08 01:45:58;;;;;;;0.75;0.75;;;;;;;20.74;44.95;100244.94;5005577;28;20037;-75
2021/09/08 01:48:23;;;;;;;0.73;0.65;;;;;;;20.75;44.70;100249.38;4988536;28;20034;-75
2021/09/08 01:50:49;;;;;;;1.42;1.05;;;;;;;20.72;44.75;100245.28;5006309;28;20112;-74
2021/09/08 01:53:15;;;;;;;0.68;0.68;;;;;;;20.69;44.81;100237.63;5011986;28;20061;-74
2021/09/08 01:55:41;;;;;;;0.63;0.63;;;;;;;20.72;44.78;100236.94;5007411;28;20041;-71
2021/09/08 01:58:06;;;;;;;0.55;0.55;;;;;;;20.71;45.25;100240.06;5006065;28;20045;-71
2021/09/08 02:00:32;;;;;;;1.40;1.30;;;;;;;20.66;45.26;100229.97;5012842;28;20037;-72
2021/09/08 02:02:57;;;;;;;1.10;1.10;;;;;;;20.66;44.81;100232.75;4996073;28;20089;-71
2021/09/08 02:05:23;;;;;;;0.82;0.82;;;;;;;20.62;45.29;100223.44;5007543;28;20022;-71
2021/09/08 02:07:48;;;;;;;1.20;1.17;;;;;;;20.60;45.31;100222.94;4992143;28;20018;-71
2021/09/08 02:10:14;;;;;;;1.13;1.13;;;;;;;20.58;45.31;100223.28;4986004;28;20155;-71
2021/09/08 02:12:42;;;;;;;0.98;0.98;;;;;;;20.56;45.47;100216.47;4972729;28;20554;-71
2021/09/08 02:15:08;;;;;;;0.70;0.70;;;;;;;20.56;45.66;100216.47;5009438;28;20109;-70
2021/09/08 02:17:34;;;;;;;0.60;0.60;;;;;;;20.55;46.03;100210.09;4993593;28;20030;-74
2021/09/08 02:19:59;;;;;;;2.90;0.90;;;;;;;20.54;45.80;100208.44;4999291;28;20030;-74
2021/09/08 02:22:25;;;;;;;0.70;0.70;;;;;;;20.57;46.06;100215.31;5005558;28;20030;-72
2021/09/08 02:24:50;;;;;;;1.05;1.05;;;;;;;20.56;45.77;100211.72;4983768;28;20113;-72
2021/09/08 02:27:16;;;;;;;0.70;0.70;;;;;;;20.57;46.15;100212.53;5014158;28;20065;-74
2021/09/08 02:29:41;;;;;;;0.70;0.70;;;;;;;20.54;45.81;100200.13;4989492;28;20383;-75
2021/09/08 02:32:07;;;;;;;0.80;0.80;;;;;;;20.54;46.25;100202.09;5015332;28;20457;-74
2021/09/08 02:34:32;;;;;;;0.90;0.90;;;;;;;20.55;46.41;100198.97;5011444;28;20135;-74
2021/09/08 02:36:58;;;;;;;0.68;0.68;;;;;;;20.57;46.42;100190.31;4996822;28;20036;-75
2021/09/08 02:39:24;;;;;;;1.40;1.38;;;;;;;20.54;46.05;100182.66;5011975;28;20040;-74
2021/09/08 02:41:50;;;;;;;1.70;1.60;;;;;;;20.50;46.37;100181.69;4992687;28;20674;-74
2021/09/08 02:44:15;;;;;;;2.15;2.05;;;;;;;20.45;46.92;100187.47;5006551;28;20088;-73
2021/09/08 02:46:41;;;;;;;1.50;1.40;;;;;;;20.42;46.29;100190.94;5002417;28;20060;-73
2021/09/08 02:49:06;;;;;;;1.33;1.23;;;;;;;20.37;46.19;100181.66;5006521;28;20040;-74
2021/09/08 02:51:32;;;;;;;1.48;1.38;;;;;;;20.35;46.80;100186.69;5006041;28;20033;-71
2021/09/08 02:53:57;;;;;;;1.00;1.00;;;;;;;20.36;46.50;100182.78;5008628;28;20122;-71
2021/09/08 02:56:22;;;;;;;1.58;1.20;;;;;;;20.37;46.47;100176.09;4970851;28;20029;-72
2021/09/08 02:58:48;;;;;;;1.10;1.10;;;;;;;20.34;47.17;100171.22;5009509;28;20037;-72
2021/09/08 03:01:13;;;;;;;0.60;0.60;;;;;;;20.32;46.98;100173.50;4989031;28;20092;-71
2021/09/08 03:03:39;;;;;;;0.80;0.80;;;;;;;20.29;46.85;100167.81;4980792;28;20045;-70
2021/09/08 03:06:05;;;;;;;0.60;0.60;;;;;;;20.27;47.07;100165.38;4993518;28;20105;-71
2021/09/08 03:08:30;;;;;;;0.70;0.70;;;;;;;20.30;47.49;100169.47;5006897;28;20125;-71
2021/09/08 03:10:56;;;;;;;0.88;0.88;;;;;;;20.29;47.61;100160.28;5000207;28;20038;-71
2021/09/08 03:13:21;;;;;;;0.80;0.80;;;;;;;20.27;46.75;100170.94;5002659;28;20036;-69
2021/09/08 03:15:47;;;;;;;1.20;1.10;;;;;;;20.20;47.07;100173.44;5010747;28;20033;-70
2021/09/08 03:18:13;;;;;;;0.75;0.75;;;;;;;20.18;47.40;100175.72;4987740;28;20030;-71
2021/09/08 03:20:39;;;;;;;1.48;1.00;;;;;;;20.11;47.13;100172.69;4993168;28;20044;-70
2021/09/08 03:23:06;;;;;;;0.88;0.88;;;;;;;20.08;47.95;100170.56;4997291;28;20049;-70
2021/09/08 03:25:31;;;;;;;1.60;1.05;;;;;;;20.07;47.76;100168.97;5003404;28;20017;-70
2021/09/08 03:27:57;;;;;;;0.70;0.70;;;;;;;20.02;48.17;100161.66;5003237;28;20030;-70
2021/09/08 03:30:24;;;;;;;0.65;0.65;;;;;;;20.00;47.77;100167.50;5001910;28;20456;-69
2021/09/08 03:32:49;;;;;;;1.23;1.15;;;;;;;19.95;47.72;100159.41;5008384;28;20025;-69
2021/09/08 03:35:15;;;;;;;1.00;1.00;;;;;;;19.92;47.65;100151.75;4988100;28;20026;-70
2021/09/08 03:37:42;;;;;;;1.00;1.00;;;;;;;19.90;47.64;100148.47;4992650;28;20034;-69
2021/09/08 03:40:08;;;;;;;1.00;1.00;;;;;;;19.87;48.46;100143.59;4988578;28;20387;-70
2021/09/08 03:42:35;;;;;;;1.05;1.00;;;;;;;19.82;48.42;100139.06;5008390;28;20028;-69
2021/09/08 03:45:01;;;;;;;0.57;0.57;;;;;;;19.79;48.51;100138.94;5002260;28;20026;-70
2021/09/08 03:47:27;;;;;;;0.80;0.80;;;;;;;19.77;48.29;100130.09;4976023;28;20026;-72
2021/09/08 03:49:52;;;;;;;1.13;1.13;;;;;;;19.75;48.75;100121.31;5000532;28;20048;-70
2021/09/08 03:52:18;;;;;;;1.33;1.23;;;;;;;19.69;48.69;100118.69;4990407;28;20045;-71
2021/09/08 03:54:45;;;;;;;1.33;1.30;;;;;;;19.75;48.91;100124.06;4993145;28;20041;-71
2021/09/08 03:57:11;;;;;;;2.38;2.25;;;;;;;19.74;49.29;100114.91;5002455;28;20032;-70
2021/09/08 03:59:38;;;;;;;2.72;2.63;;;;;;;19.76;49.37;100114.63;4987411;28;20030;-71
2021/09/08 04:02:04;;;;;;;2.47;1.90;;;;;;;19.78;48.76;100110.34;4985109;28;20030;-74
2021/09/08 04:04:30;;;;;;;1.80;1.70;;;;;;;19.80;49.15;100112.78;4997881;28;20109;-73
2021/09/08 04:06:55;;;;;;;2.35;2.25;;;;;;;19.82;49.35;100113.28;5008768;28;21518;-73
2021/09/08 04:09:21;;;;;;;1.77;1.60;;;;;;;19.79;49.21;100105.66;5003612;28;20463;-73
2021/09/08 04:11:46;;;;;;;2.25;2.15;;;;;;;19.84;49.91;100105.44;4981907;28;20025;-73
2021/09/08 04:14:12;;;;;;;1.85;1.75;;;;;;;19.85;48.99;100094.00;5007460;28;20041;-73
2021/09/08 04:16:37;;;;;;;2.42;2.33;;;;;;;19.86;49.77;100090.09;5007877;28;20112;-74
2021/09/08 04:19:03;;;;;;;1.92;1.83;;;;;;;19.89;49.77;100083.06;4992823;28;20022;-74
2021/09/08 04:21:29;;;;;;;1.75;1.65;;;;;;;19.92;50.07;100087.09;5004169;28;20039;-74
2021/09/08 04:23:54;;;;;;;2.40;2.30;;;;;;;19.90;49.33;100078.31;5009549;28;20487;-74
2021/09/08 04:26:20;;;;;;;2.35;2.25;;;;;;;19.91;49.93;100074.38;4976856;28;20034;-75
2021/09/08 04:28:49;;;;;;;2.15;2.05;;;;;;;19.92;50.02;100076.81;5005917;28;20042;-75
2021/09/08 04:31:15;;;;;;;3.33;3.03;;;;;;;19.91;49.94;100075.19;5009148;28;20079;-74
2021/09/08 04:33:40;;;;;;;2.28;2.17;;;;;;;19.90;50.24;100079.09;4991263;28;20109;-73
2021/09/08 04:36:05;;;;;;;3.72;3.53;;;;;;;19.87;50.04;100079.78;5006856;28;20034;-73
2021/09/08 04:38:31;;;;;;;2.85;2.67;;;;;;;19.83;50.36;100073.28;4997730;28;20036;-73
2021/09/08 04:40:57;;;;;;;2.17;2.08;;;;;;;19.83;50.17;100081.59;5004097;28;20064;-73
2021/09/08 04:43:23;;;;;;;2.30;2.20;;;;;;;19.81;50.62;100081.13;5001553;28;20065;-73
2021/09/08 04:45:49;;;;;;;2.28;2.17;;;;;;;19.77;50.10;100075.44;5006276;28;20041;-73
2021/09/08 04:48:14;;;;;;;2.53;2.42;;;;;;;19.74;50.53;100069.72;5007670;28;20030;-74
2021/09/08 04:50:40;;;;;;;1.80;1.70;;;;;;;19.73;50.52;100068.94;5012555;28;20109;-75
2021/09/08 04:53:07;;;;;;;2.25;2.05;;;;;;;19.71;50.73;100063.72;5017144;28;20132;-74
2021/09/08 04:55:33;;;;;;;2.75;2.58;;;;;;;19.68;50.78;100060.78;4977840;28;20034;-76
2021/09/08 04:57:58;;;;;;;1.98;1.88;;;;;;;19.68;50.28;100066.34;5014859;28;20030;-75
2021/09/08 05:00:24;;;;;;;1.70;1.60;;;;;;;19.64;50.67;100066.22;5018901;28;20161;-72
2021/09/08 05:02:49;;;;;;;2.92;2.83;;;;;;;19.64;51.04;100066.22;5009421;28;20087;-72
2021/09/08 05:05:15;;;;;;;2.45;2.35;;;;;;;19.61;50.44;100066.88;4993181;28;20038;-72
2021/09/08 05:07:40;;;;;;;2.05;1.80;;;;;;;19.51;50.65;100072.81;5004486;28;20045;-72
2021/09/08 05:10:07;;;;;;;2.58;2.47;;;;;;;19.51;50.97;100079.16;4994126;28;20045;-72
2021/09/08 05:12:33;;;;;;;2.15;2.03;;;;;;;19.48;50.87;100073.50;4986321;28;20103;-71
2021/09/08 05:14:59;;;;;;;1.92;1.83;;;;;;;19.46;51.07;100070.22;5012676;28;20042;-71
2021/09/08 05:17:24;;;;;;;7.03;2.60;;;;;;;19.43;51.61;100059.81;5016704;28;20037;-75
2021/09/08 05:19:49;;;;;;;2.38;2.25;;;;;;;19.41;51.08;100073.22;5008911;28;20025;-74
2021/09/08 05:22:15;;;;;;;2.47;1.98;;;;;;;19.39;51.42;100054.13;5012621;28;20041;-75
2021/09/08 05:24:40;;;;;;;1.80;1.70;;;;;;;19.41;51.63;100067.66;4974947;28;20041;-75
2021/09/08 05:27:06;;;;;;;1.45;1.45;;;;;;;19.40;51.51;100060.47;5012555;28;20493;-74
2021/09/08 05:29:31;;;;;;;2.30;2.20;;;;;;;19.41;51.65;100057.38;5004942;28;20483;-74
2021/09/08 05:31:57;;;;;;;2.17;2.08;;;;;;;19.43;51.78;100055.06;4990473;28;20112;-74
2021/09/08 05:34:22;;;;;;;1.80;1.70;;;;;;;19.49;51.67;100055.69;4993623;28;20029;-73
2021/09/08 05:36:48;;;;;;;2.75;2.55;;;;;;;19.50;51.52;100054.56;4973823;28;20034;-74
2021/09/08 05:39:14;;;;;;;3.33;3.17;;;;;;;19.50;51.52;100060.09;4969076;28;20026;-75
2021/09/08 05:41:39;;;;;;;2.30;2.20;;;;;;;19.52;51.78;100063.34;4980548;28;20121;-74
2021/09/08 05:44:05;;;;;;;2.33;2.22;;;;;;;19.52;52.11;100066.94;4975378;28;21535;-74
2021/09/08 05:46:30;;;;;;;2.42;2.33;;;;;;;19.52;51.78;100069.72;5011504;28;20034;-74
2021/09/08 05:48:56;;;;;;;1.75;1.65;;;;;;;19.53;51.55;100067.75;5009815;28;20109;-75
2021/09/08 05:51:21;;;;;;;2.30;2.15;;;;;;;19.54;51.95;100067.41;5011361;28;20514;-73
2021/09/08 05:53:47;;;;;;;2.45;2.35;;;;;;;19.56;52.09;100053.19;4988411;28;20105;-76
2021/09/08 05:56:12;;;;;;;2.95;2.85;;;;;;;19.59;51.79;100052.53;4989727;28;20374;-75
2021/09/08 05:58:38;;;;;;;2.53;2.40;;;;;;;19.59;52.03;100052.53;4975400;28;20038;-75
2021/09/08 06:01:03;;;;;;;1.80;1.70;;;;;;;19.64;52.09;100049.56;4981550;28;20488;-74
2021/09/08 06:03:29;;;;;;;2.15;2.05;;;;;;;19.68;52.13;100058.84;4993659;28;20030;-75
2021/09/08 06:05:54;;;;;;;2.00;1.90;;;;;;;19.66;51.83;100058.34;4979112;28;20026;-73
2021/09/08 06:08:20;;;;;;;2.20;2.10;;;;;;;19.63;51.62;100059.03;4990676;28;20030;-76
2021/09/08 06:10:45;;;;;;;2.65;2.50;;;;;;;19.66;52.37;100061.13;4991955;28;20037;-75
2021/09/08 06:13:11;;;;;;;2.22;2.13;;;;;;;19.64;51.74;100055.13;4988182;28;20050;-75
2021/09/08 06:15:36;;;;;;;2.85;2.65;;;;;;;19.66;52.49;100058.34;4993236;28;20057;-73
2021/09/08 06:18:04;;;;;;;3.10;2.90;;;;;;;19.67;52.59;100057.22;4988414;28;20061;-74
2021/09/08 06:20:29;;;;;;;3.47;3.28;;;;;;;19.69;52.38;100063.22;4992790;28;20050;-75
2021/09/08 06:22:55;;;;;;;3.95;3.75;;;;;;;19.76;52.55;100067.44;4991072;28;20033;-75
2021/09/08 06:25:21;;;;;;;4.57;3.08;;;;;;;19.81;52.63;100072.81;4986724;28;20033;-75
2021/09/08 06:27:47;;;;;;;3.25;2.92;;;;;;;19.88;51.90;100076.66;4984247;28;20030;-75
2021/09/08 06:30:14;;;;;;;2.90;2.80;;;;;;;19.91;52.22;100057.75;4987768;28;20030;-76
2021/09/08 06:32:40;;;;;;;2.13;2.00;;;;;;;20.03;51.92;100061.41;4992412;28;20022;-75
2021/09/08 06:35:06;;;;;;;3.95;3.75;;;;;;;20.10;52.41;100065.59;4987244;28;20102;-75
2021/09/08 06:37:31;;;;;;;4.63;4.22;;;;;;;20.16;52.47;100064.22;5002827;28;20034;-73
2021/09/08 06:39:57;;;;;;;3.75;3.45;;;;;;;20.18;52.37;100057.19;4993777;28;20026;-75
2021/09/08 06:42:22;;;;;;;3.97;3.15;;;;;;;20.27;52.34;100047.94;4988933;28;20384;-75
2021/09/08 06:44:53;;;;;;;4.18;3.88;;;;;;;20.35;51.93;100052.63;4991872;28;20408;-75
2021/09/08 06:47:24;;;;;;;3.17;2.97;;;;;;;20.45;51.77;100048.63;4990673;28;20109;-76
2021/09/08 06:49:51;;;;;;;3.33;3.13;;;;;;;20.52;51.53;100051.66;4991130;28;20034;-73
2021/09/08 06:52:17;;;;;;;3.88;3.55;;;;;;;20.58;51.70;100053.84;4988864;28;20508;-76
2021/09/08 06:54:43;;;;;;;4.78;4.38;;;;;;;20.67;51.81;100062.13;5004155;28;20120;-74
2021/09/08 06:57:13;;;;;;;4.15;3.85;;;;;;;20.73;51.73;100054.38;5009031;28;20476;-75
2021/09/08 06:59:41;;;;;;;4.13;3.83;;;;;;;20.80;51.90;100059.38;4990138;28;20037;-77
2021/09/08 07:02:08;;;;;;;4.13;3.92;;;;;;;20.82;51.74;100046.78;5005603;28;20030;-74
2021/09/08 07:04:34;;;;;;;3.97;3.47;;;;;;;20.91;51.63;100049.47;5002009;28;20037;-74
2021/09/08 07:07:01;;;;;;;3.53;3.25;;;;;;;20.98;51.68;100044.13;5002978;28;20034;-79
2021/09/08 07:09:27;;;;;;;3.80;3.60;;;;;;;21.06;51.55;100046.00;5001787;28;20033;-75
2021/09/08 07:11:52;;;;;;;3.35;3.15;;;;;;;21.15;51.55;100048.66;4985428;28;20099;-73
2021/09/08 07:14:18;;;;;;;3.05;2.80;;;;;;;21.25;51.28;100041.84;4983415;28;20061;-74
2021/09/08 07:16:44;;;;;;;3.83;3.63;;;;;;;21.33;51.20;100038.09;4992242;28;20018;-74
2021/09/08 07:19:09;;;;;;;3.90;3.67;;;;;;;21.42;50.79;100037.97;4974998;28;20437;-75
2021/09/08 07:21:35;;;;;;;3.40;3.22;;;;;;;21.51;50.96;100029.53;4988705;28;20534;-74
2021/09/08 07:24:00;;;;;;;3.63;3.50;;;;;;;21.60;50.60;100035.81;4997987;28;20168;-74
2021/09/08 07:26:32;;;;;;;3.55;3.42;;;;;;;21.71;50.86;100036.97;5008932;28;20121;-74
2021/09/08 07:28:58;;;;;;;2.60;2.50;;;;;;;21.83;50.57;100032.50;4988280;28;20030;-74
2021/09/08 07:31:24;;;;;;;3.45;3.28;;;;;;;21.94;50.37;100028.06;5010430;28;20034;-75
2021/09/08 07:33:49;;;;;;;3.88;3.67;;;;;;;22.08;50.22;100038.81;5012255;28;20022;-75
2021/09/08 07:36:15;;;;;;;3.60;3.40;;;;;;;22.20;49.98;100033.19;5006217;28;20088;-74
2021/09/08 07:38:40;;;;;;;2.80;2.70;;;;;;;22.30;49.96;100017.97;5011261;28;20029;-74
2021/09/08 07:41:09;;;;;;;3.50;3.30;;;;;;;22.43;49.43;100018.75;4992502;28;20033;-72
2021/09/08 07:43:34;;;;;;;3.10;2.95;;;;;;;22.58;49.30;100023.53;4975037;28;20030;-75
2021/09/08 07:46:00;;;;;;;3.15;2.85;;;;;;;22.76;49.31;100023.97;5014940;28;20040;-77
2021/09/08 07:48:27;;;;;;;3.05;2.85;;;;;;;22.90;48.83;100028.31;5005520;28;20022;-75
2021/09/08 07:50:53;;;;;;;3.20;3.00;;;;;;;23.00;48.55;100017.44;5004130;28;20013;-76
2021/09/08 07:53:18;;;;;;;3.08;2.88;;;;;;;23.16;48.80;100014.66;4977341;28;20542;-77
2021/09/08 07:55:51;;;;;;;2.67;2.58;;;;;;;23.29;48.46;100011.75;4990158;28;20030;-77
2021/09/08 07:58:17;;;;;;;2.53;2.42;;;;;;;23.50;48.39;100006.69;4998773;28;20034;-75
2021/09/08 08:00:42;;;;;;;2.08;1.85;;;;;;;23.78;47.97;99988.94;4946778;28;20026;-74
2021/09/08 08:03:10;;;;;;;2.53;2.33;;;;;;;24.08;46.93;99991.19;4986204;28;20030;-75
2021/09/08 08:05:35;;;;;;;3.00;2.90;;;;;;;24.31;47.08;99987.63;4978256;28;20037;-75
2021/09/08 08:08:01;;;;;;;4.22;3.10;;;;;;;24.50;46.38;99979.22;4983674;28;20440;-73
2021/09/08 08:10:27;;;;;;;2.85;2.65;;;;;;;24.71;45.92;99983.59;5001148;28;20065;-73
2021/09/08 08:12:53;;;;;;;2.90;2.58;;;;;;;25.03;45.06;99984.13;4990331;28;20108;-72
2021/09/08 08:15:19;;;;;;;3.03;2.75;;;;;;;25.38;45.02;99985.88;5003814;28;20501;-74
2021/09/08 08:17:45;;;;;;;6.95;5.82;;;;;;;25.75;44.09;99995.56;5006654;28;20033;-74
2021/09/08 08:20:12;;;;;;;6.38;5.78;;;;;;;26.09;43.92;99992.81;5006446;28;20060;-74
2021/09/08 08:22:39;;;;;;;7.78;6.30;;;;;;;26.50;42.92;99995.66;4987190;28;20063;-74
2021/09/08 08:25:06;;;;;;;7.78;6.35;;;;;;;26.89;42.68;99995.25;4998599;28;20084;-73
2021/09/08 08:27:32;;;;;;;8.45;5.47;;;;;;;27.23;41.21;99981.06;5007311;28;20095;-74
2021/09/08 08:29:57;;;;;;;4.30;4.00;;;;;;;27.52;40.64;99987.72;5006442;28;20655;-76
2021/09/08 08:32:24;;;;;;;3.80;3.60;;;;;;;27.83;39.79;99990.25;5004670;28;20037;-73
2021/09/08 08:34:50;;;;;;;4.22;3.92;;;;;;;28.10;39.09;99992.81;5008241;28;20109;-73
2021/09/08 08:37:16;;;;;;;3.30;3.13;;;;;;;28.36;38.85;99995.28;4983791;28;20079;-73
2021/09/08 08:39:41;;;;;;;4.70;3.30;;;;;;;28.67;38.06;99990.13;5007093;28;20361;-73
2021/09/08 08:42:12;;;;;;;2.88;2.70;;;;;;;29.05;37.54;99984.91;5004720;28;20064;-74
2021/09/08 08:44:39;;;;;;;2.80;2.70;;;;;;;29.45;37.32;99982.03;4989869;28;20029;-73
2021/09/08 08:47:05;;;;;;;2.80;2.70;;;;;;;29.69;37.17;99983.19;4989825;28;20038;-75
2021/09/08 08:49:31;;;;;;;3.92;3.65;;;;;;;29.79;35.43;99987.19;5008277;28;20037;-74
2021/09/08 08:51:56;;;;;;;3.83;3.63;;;;;;;29.86;35.43;99983.56;5007212;28;20380;-74
2021/09/08 08:54:22;;;;;;;3.97;2.83;;;;;;;29.95;35.41;99992.38;5012138;28;20030;-73
2021/09/08 08:56:47;;;;;;;3.25;3.15;;;;;;;30.00;35.24;99986.31;4983848;28;20061;-74
2021/09/08 08:59:13;;;;;;;2.53;2.42;;;;;;;30.13;35.12;99997.13;4985349;28;20127;-72
2021/09/08 09:01:40;;;;;;;3.80;3.45;;;;;;;30.29;35.01;100003.06;4994812;28;20460;-75
2021/09/08 09:04:09;;;;;;;3.20;3.05;;;;;;;30.62;35.22;100006.50;5008047;28;20034;-74
2021/09/08 09:06:39;;;;;;;2.95;2.85;;;;;;;30.94;34.49;100002.63;5002949;28;20116;-74
2021/09/08 09:09:17;;;;;;;2.95;2.85;;;;;;;31.00;33.24;100006.66;4996342;28;20038;-73
2021/09/08 09:11:49;;;;;;;3.17;2.97;;;;;;;31.10;33.55;100011.44;5002538;28;20052;-74
2021/09/08 09:14:17;;;;;;;3.00;2.90;;;;;;;31.19;33.43;100007.28;5006827;28;20525;-74
2021/09/08 09:16:44;;;;;;;2.95;2.85;;;;;;;31.32;33.23;100003.53;4975909;28;20180;-72
2021/09/08 09:19:13;;;;;;;2.75;2.63;;;;;;;31.64;33.09;100010.09;4990246;28;20030;-76
2021/09/08 09:21:47;;;;;;;2.83;2.72;;;;;;;31.96;32.74;100014.56;4999648;28;20029;-76
2021/09/08 09:24:14;;;;;;;4.40;3.15;;;;;;;32.31;32.53;100018.97;4999718;28;20029;-73
2021/09/08 09:26:42;;;;;;;3.65;3.25;;;;;;;32.54;31.54;100032.38;5007744;28;20041;-73
2021/09/08 09:29:20;;;;;;;3.10;3.00;;;;;;;32.69;31.81;100035.81;4972383;28;20038;-75
2021/09/08 09:32:01;;;;;;;3.00;2.80;;;;;;;32.72;30.95;100037.00;5011767;28;20033;-74
2021/09/08 09:34:29;;;;;;;3.17;3.08;;;;;;;32.45;31.00;100017.97;5002004;28;20025;-73
2021/09/08 09:36:57;;;;;;;2.40;2.30;;;;;;;32.52;30.67;100017.03;4991990;28;20030;-74
2021/09/08 09:39:28;;;;;;;4.35;2.92;;;;;;;32.44;30.46;100005.03;5012267;28;20025;-74
2021/09/08 09:41:58;;;;;;;10.82;3.55;;;;;;;32.37;30.35;100005.13;5001242;28;20057;-72
2021/09/08 09:44:23;;;;;;;5.03;3.33;;;;;;;32.15;30.17;100022.41;4991441;28;20052;-78
2021/09/08 09:46:49;;;;;;;3.40;3.20;;;;;;;31.94;30.75;100039.63;4988301;28;21154;-73
2021/09/08 09:49:15;;;;;;;2.70;2.60;;;;;;;31.82;31.14;100033.31;5005489;28;20052;-75
2021/09/08 09:51:41;;;;;;;3.58;3.03;;;;;;;31.88;30.92;100035.66;5010529;28;20121;-73
2021/09/08 09:54:07;;;;;;;5.57;2.83;;;;;;;32.06;30.77;100030.59;5009061;28;20046;-73
2021/09/08 09:56:33;;;;;;;3.05;2.95;;;;;;;32.32;30.51;100031.09;5014469;28;20755;-74
2021/09/08 09:58:59;;;;;;;6.47;2.97;;;;;;;32.52;30.27;100034.84;4991973;28;20068;-76
2021/09/08 10:01:25;;;;;;;3.30;3.10;;;;;;;32.49;30.21;100041.34;5001531;28;20376;-74
2021/09/08 10:03:52;;;;;;;4.60;3.03;;;;;;;32.48;29.74;100051.06;4952622;28;20048;-73
2021/09/08 10:06:18;;;;;;;8.75;3.22;;;;;;;32.23;30.18;100057.06;4933172;28;20131;-74
2021/09/08 10:08:48;;;;;;;2.95;2.85;;;;;;;32.08;30.00;100050.78;4929735;28;20641;-74
2021/09/08 10:11:19;;;;;;;4.05;3.75;;;;;;;31.77;30.71;100049.91;4873795;28;20037;-72
2021/09/08 10:13:52;;;;;;;2.83;2.63;;;;;;;31.68;31.19;100053.25;4970529;28;20037;-73
2021/09/08 10:16:18;;;;;;;3.95;3.47;;;;;;;31.81;30.91;100054.31;4997160;28;20120;-74
2021/09/08 10:18:49;;;;;;;2.95;2.85;;;;;;;31.76;31.40;100051.94;5014032;28;20017;-72
2021/09/08 10:21:19;;;;;;;8.50;3.00;;;;;;;31.66;31.28;100067.00;4988892;28;20038;-73
2021/09/08 10:24:03;;;;;;;4.07;2.88;;;;;;;31.56;31.42;100060.22;5007244;28;20030;-72
2021/09/08 10:26:30;;;;;;;9.87;4.07;;;;;;;31.25;31.80;100090.34;5008633;28;20022;-72
2021/09/08 10:29:05;;;;;;;2.97;2.88;;;;;;;30.87;32.46;100059.97;4990340;28;20029;-72
2021/09/08 10:31:32;;;;;;;3.88;3.67;;;;;;;30.85;33.04;100039.00;5006602;28;20056;-72
2021/09/08 10:33:59;;;;;;;5.20;3.17;;;;;;;30.96;33.17;100039.75;5003612;28;20381;-73
2021/09/08 10:36:26;;;;;;;2.40;2.20;;;;;;;31.19;32.94;100035.53;5002688;28;20030;-73
2021/09/08 10:39:05;;;;;;;3.55;2.30;;;;;;;31.48;32.13;100030.41;5001384;28;20037;-74
2021/09/08 10:41:37;;;;;;;3.20;2.95;;;;;;;31.38;32.55;100020.84;5007638;28;20429;-73
2021/09/08 10:44:03;;;;;;;3.78;3.47;;;;;;;31.25;32.55;100016.91;5005990;28;20136;-73
2021/09/08 10:46:47;;;;;;;3.13;3.03;;;;;;;31.24;32.12;100020.97;5000590;28;20029;-73
2021/09/08 10:49:41;;;;;;;2.70;2.53;;;;;;;31.15;32.87;100008.13;4997395;28;20033;-73
2021/09/08 10:52:12;;;;;;;3.20;2.90;;;;;;;31.25;33.10;100014.09;4984210;28;20137;-71
2021/09/08 10:54:56;;;;;;;4.85;3.00;;;;;;;31.44;33.06;100001.38;4984911;28;20026;-74
2021/09/08 10:57:40;;;;;;;2.85;2.65;;;;;;;31.51;32.75;99992.84;5000705;28;20488;-72
2021/09/08 11:00:14;;;;;;;2.38;2.25;;;;;;;31.97;33.26;99985.84;5004494;28;20480;-73
2021/09/08 11:02:41;;;;;;;2.28;2.17;;;;;;;32.77;32.06;99993.25;4984719;28;20403;-74
2021/09/08 11:05:11;;;;;;;2.58;2.38;;;;;;;33.50;31.95;99985.91;5003578;28;20037;-73
2021/09/08 11:07:40;;;;;;;2.35;2.25;;;;;;;34.47;31.47;99983.06;4988962;28;20445;-72
2021/09/08 11:10:07;;;;;;;2.60;2.25;;;;;;;35.39;30.01;99986.88;5002917;28;20041;-74
2021/09/08 11:12:55;;;;;;;2.10;1.98;;;;;;;37.46;29.30;99994.25;4999758;28;20053;-74
2021/09/08 11:15:38;;;;;;;2.35;1.98;;;;;;;39.47;26.97;99995.25;4985307;28;20030;-73
2021/09/08 11:18:10;;;;;;;1.65;1.55;;;;;;;41.10;25.25;99978.47;5000759;28;20528;-76
2021/09/08 11:20:35;;;;;;;2.08;1.85;;;;;;;42.64;23.23;99982.03;4991341;28;20041;-73
2021/09/08 11:23:12;;;;;;;2.28;2.08;;;;;;;44.06;20.83;99984.47;5000314;28;20033;-74
2021/09/08 11:25:42;;;;;;;4.25;1.85;;;;;;;44.97;19.84;99980.09;5008005;28;20037;-74